Philadelphia, Pennsylvania
Traffic Map
Current Weather Conditions
Philadelphia, Pennsylvania
Overcast
Overcast
21°
Feels Like: 21°
Wind Chill: 21° Ceiling: 25000
Heat Index: 21° Visibility: 10mi
Dew Point: 16° Wind: 5mph
Humidity: 73% Direction: 200° (SSW)
Pressure: 30.01in Gusts: 0mph
Raw Report DataKPHL 260854Z 20004KT 10SM SCT150 OVC250 21/16 A3001 RMK AO2 SLP162 T02060156 56005 $
Traffic Incident Summary
Active as of:
Severity:
Category:
InformationThere was an issue retrieving the traffic information for this location. Please try a different location or try again shortly.
Advertisements
Track Severe Weather on mobile